createdAt,value
2019-04-14T07:21:30.940Z,24.52
2019-04-14T07:24:06.557Z,17.82
2019-04-14T07:26:43.286Z,26.30
2019-04-14T07:29:16.744Z,23.80
2019-04-14T07:32:14.141Z,23.27
2019-04-14T07:35:05.969Z,24.92
2019-04-14T07:37:54.674Z,34.08
2019-04-14T07:40:52.323Z,33.48
2019-04-14T07:43:50.222Z,42.53
2019-04-14T07:46:49.334Z,34.10
2019-04-14T07:49:57.740Z,49.58
2019-04-14T07:52:57.331Z,30.08
2019-04-14T07:55:38.881Z,36.10
2019-04-14T07:58:25.037Z,43.48
2019-04-14T08:01:06.858Z,44.88
2019-04-14T08:03:58.960Z,39.50
2019-04-14T08:06:33.191Z,40.35
2019-04-14T08:09:08.642Z,33.63
2019-04-14T08:11:41.811Z,29.77
2019-04-14T08:14:17.358Z,30.65
2019-04-14T08:16:54.128Z,33.78
2019-04-14T08:19:27.740Z,36.17
2019-04-14T08:22:06.905Z,31.80
2019-04-14T08:24:40.190Z,35.15
2019-04-14T08:27:16.382Z,28.73
2019-04-14T08:29:50.696Z,35.90
2019-04-14T08:32:23.930Z,33.02
2019-04-14T08:34:57.241Z,35.65
2019-04-14T08:37:30.466Z,24.20
2019-04-14T08:40:03.728Z,28.02
2019-04-14T08:43:03.241Z,31.62
2019-04-14T08:45:46.265Z,30.88
2019-04-14T08:48:31.869Z,30.35
2019-04-14T08:51:17.471Z,61.18
2019-04-14T08:54:04.169Z,46.33
2019-04-14T08:57:11.194Z,75.10
2019-04-14T09:00:06.843Z,53.87
2019-04-14T09:02:55.480Z,68.45
2019-04-14T09:05:48.613Z,31.80
2019-04-14T09:08:29.487Z,121.55
2019-04-14T09:11:10.981Z,61.77
2019-04-14T09:13:44.455Z,51.00
2019-04-14T09:16:19.032Z,33.80
2019-04-14T09:19:07.120Z,45.20
2019-04-14T09:21:31.541Z,25.88
2019-04-14T09:24:06.902Z,27.22
2019-04-14T09:26:48.287Z,35.20
2019-04-14T09:29:23.599Z,25.37
2019-04-14T09:31:57.231Z,24.85
2019-04-14T09:34:31.964Z,24.15
2019-04-14T09:37:15.146Z,28.07
2019-04-14T09:39:48.412Z,20.80
2019-04-14T09:42:24.980Z,32.08
2019-04-14T09:44:58.233Z,23.83
2019-04-14T09:47:31.589Z,16.10
2019-04-14T09:50:06.815Z,19.40
2019-04-14T09:52:40.033Z,23.47
2019-04-14T09:55:15.063Z,22.70
2019-04-14T09:57:48.295Z,18.35
2019-04-14T10:00:39.863Z,18.42
2019-04-14T10:03:17.271Z,58.15
2019-04-14T10:05:53.395Z,18.67
2019-04-14T10:08:27.029Z,20.37
2019-04-14T10:11:00.127Z,14.68
2019-04-14T10:13:33.518Z,20.95
2019-04-14T10:16:06.726Z,25.97
2019-04-14T10:18:39.804Z,22.55
2019-04-14T10:21:17.698Z,23.18
2019-04-14T10:23:48.755Z,16.05
2019-04-14T10:26:22.421Z,25.37
2019-04-14T10:28:55.577Z,73.72
2019-04-14T10:31:29.847Z,19.85
2019-04-14T10:34:03.620Z,19.12
2019-04-14T10:36:36.870Z,20.35
2019-04-14T10:39:13.258Z,15.60
2019-04-14T10:41:54.136Z,17.82
2019-04-14T10:44:27.530Z,15.48
2019-04-14T10:47:00.736Z,26.05
2019-04-14T10:49:34.013Z,9.35
2019-04-14T10:52:11.000Z,14.60
2019-04-14T10:54:47.839Z,13.03
2019-04-14T10:57:22.574Z,24.02
2019-04-14T11:00:00.983Z,14.30
2019-04-14T11:02:42.768Z,15.65
2019-04-14T11:05:17.486Z,12.58
2019-04-14T11:08:02.029Z,20.05
2019-04-14T11:10:42.198Z,14.70
2019-04-14T11:13:18.033Z,11.03
2019-04-14T11:15:52.425Z,12.25
2019-04-14T11:18:28.965Z,13.95
2019-04-14T11:21:07.472Z,14.00
2019-04-14T11:23:42.667Z,13.80
2019-04-14T11:26:20.560Z,16.62
2019-04-14T11:28:56.741Z,24.52
2019-04-14T11:32:03.683Z,16.23
2019-04-14T11:34:55.613Z,10.95
2019-04-14T11:37:43.874Z,18.17
2019-04-14T11:40:19.537Z,18.77
2019-04-14T11:42:57.648Z,11.83
2019-04-14T11:45:34.115Z,14.73
2019-04-14T11:48:07.390Z,11.80
2019-04-14T11:50:43.673Z,13.10
2019-04-14T11:53:19.325Z,12.65
2019-04-14T11:55:52.630Z,14.70
2019-04-14T11:58:29.142Z,13.93
2019-04-14T12:01:31.120Z,12.13
2019-04-14T12:04:23.954Z,13.15
2019-04-14T12:07:30.242Z,15.90
2019-04-14T12:10:17.331Z,14.70
2019-04-14T12:12:51.284Z,11.30
2019-04-14T12:15:25.658Z,13.13
2019-04-14T12:17:59.303Z,14.18
2019-04-14T12:20:33.278Z,15.23
2019-04-14T12:23:12.458Z,12.40
2019-04-14T12:25:46.457Z,12.40
2019-04-14T12:28:21.857Z,14.58
2019-04-14T12:30:55.471Z,13.95
2019-04-14T12:33:28.580Z,11.85
2019-04-14T12:36:01.729Z,18.55
2019-04-14T12:38:34.862Z,11.25
2019-04-14T12:41:10.536Z,12.50
2019-04-14T12:44:11.807Z,14.50
2019-04-14T12:47:03.161Z,15.68
2019-04-14T12:49:40.265Z,15.43
2019-04-14T12:52:21.537Z,15.70
2019-04-14T12:54:59.090Z,17.80
2019-04-14T12:57:39.967Z,16.75
2019-04-14T13:00:20.342Z,11.28
2019-04-14T13:02:53.634Z,17.12
2019-04-14T13:05:26.691Z,14.33
2019-04-14T13:07:59.781Z,15.03
2019-04-14T13:10:32.907Z,12.70
2019-04-14T13:13:06.144Z,12.35
2019-04-14T13:15:39.406Z,13.45
2019-04-14T13:18:15.376Z,15.88
2019-04-14T13:20:48.558Z,21.57
2019-04-14T13:23:21.700Z,13.72
2019-04-14T13:25:55.288Z,14.25
2019-04-14T13:28:28.480Z,13.80
2019-04-14T13:31:01.606Z,11.95
2019-04-14T13:33:35.543Z,15.75
2019-04-14T13:36:08.597Z,34.78
2019-04-14T13:38:41.649Z,17.98
2019-04-14T13:41:14.729Z,11.20
2019-04-14T13:43:47.763Z,18.90
2019-04-14T13:46:21.567Z,14.78
2019-04-14T13:48:55.493Z,14.35
2019-04-14T13:51:28.602Z,12.60
2019-04-14T13:54:06.761Z,13.25
2019-04-14T13:56:40.897Z,14.28
2019-04-14T13:59:15.296Z,14.53
2019-04-14T14:01:48.416Z,13.55
2019-04-14T14:04:22.955Z,12.15
2019-04-14T14:07:05.628Z,11.40
2019-04-14T14:09:41.603Z,36.75
2019-04-14T14:12:37.164Z,40.45
2019-04-14T14:15:34.666Z,19.15
2019-04-14T14:18:22.700Z,39.92
2019-04-14T14:21:18.381Z,15.78
2019-04-14T14:24:10.158Z,17.80
2019-04-14T14:26:43.916Z,14.58
2019-04-14T14:29:23.339Z,13.40
2019-04-14T14:31:57.415Z,31.23
2019-04-14T14:34:39.778Z,11.68
2019-04-14T14:37:12.902Z,12.40
2019-04-14T14:39:46.584Z,15.32
2019-04-14T14:42:22.222Z,12.20
2019-04-14T14:45:38.183Z,14.35
2019-04-14T14:48:26.870Z,37.20
2019-04-14T14:51:29.364Z,24.20
2019-04-14T14:54:02.401Z,10.80
2019-04-14T14:56:35.985Z,18.17
2019-04-14T14:59:10.378Z,17.98
2019-04-14T15:01:46.470Z,17.82
2019-04-14T15:04:20.080Z,21.30
2019-04-14T15:06:53.357Z,19.45
2019-04-14T15:09:30.866Z,35.58
2019-04-14T15:12:05.868Z,14.65
2019-04-14T15:15:17.262Z,12.00
2019-04-14T15:17:52.254Z,17.98
2019-04-14T15:20:26.510Z,18.30
2019-04-14T15:23:01.408Z,13.98
2019-04-14T15:25:37.299Z,20.37
2019-04-14T15:28:12.306Z,15.65
2019-04-14T15:30:45.605Z,17.55
2019-04-14T15:33:18.903Z,38.10
2019-04-14T15:35:52.217Z,19.55
2019-04-14T15:38:26.906Z,67.85
2019-04-14T15:41:01.264Z,13.83
2019-04-14T15:43:36.870Z,19.05
2019-04-14T15:46:10.634Z,24.00
2019-04-14T15:48:44.010Z,31.50
2019-04-14T15:51:17.352Z,25.40
2019-04-14T15:53:50.711Z,20.68
2019-04-14T15:56:48.688Z,19.02
2019-04-14T15:59:41.699Z,19.12
2019-04-14T16:02:41.509Z,15.30
2019-04-14T16:05:29.107Z,16.90
2019-04-14T16:08:21.114Z,16.77
2019-04-14T16:10:59.784Z,12.98
2019-04-14T16:13:54.810Z,10.50
2019-04-14T16:16:50.387Z,17.85
2019-04-14T16:19:47.127Z,13.65
2019-04-14T16:22:24.382Z,14.40
2019-04-14T16:24:57.675Z,10.70
2019-04-14T16:27:49.611Z,10.93
2019-04-14T16:30:35.184Z,11.40
2019-04-14T16:33:24.637Z,20.12
2019-04-14T16:35:59.922Z,18.15
2019-04-14T16:38:35.181Z,13.28
2019-04-14T16:41:12.798Z,7.78
2019-04-14T16:43:46.160Z,131.57
2019-04-14T16:46:20.507Z,17.40
2019-04-14T16:48:57.096Z,13.72
2019-04-14T16:51:35.001Z,17.70
2019-04-14T16:54:19.142Z,10.65
2019-04-14T16:57:06.550Z,12.73
2019-04-14T16:59:42.890Z,22.95
2019-04-14T17:02:21.734Z,29.90
2019-04-14T17:04:56.534Z,28.67
2019-04-14T17:07:31.285Z,40.55
2019-04-14T17:10:04.585Z,39.75
2019-04-14T17:13:00.823Z,28.77
2019-04-14T17:16:29.099Z,36.25
2019-04-14T17:19:57.211Z,27.17
2019-04-14T17:22:47.203Z,29.40
2019-04-14T17:25:28.046Z,31.90
2019-04-14T17:28:25.769Z,35.38
2019-04-14T17:31:08.781Z,41.65
2019-04-14T17:33:48.214Z,36.73
2019-04-14T17:36:32.478Z,26.35
2019-04-14T17:39:31.786Z,24.02
2019-04-14T17:42:26.486Z,33.73
2019-04-14T17:45:18.396Z,45.28
2019-04-14T17:48:10.395Z,46.37
2019-04-14T17:50:58.161Z,44.30
2019-04-14T17:54:00.437Z,66.33
2019-04-14T17:56:55.774Z,69.77
2019-04-14T17:59:42.841Z,85.15
2019-04-14T18:02:27.517Z,90.47
2019-04-14T18:05:12.789Z,101.70
2019-04-14T18:07:58.984Z,110.08
2019-04-14T18:10:41.877Z,124.82
2019-04-14T18:13:31.031Z,104.27
2019-04-14T18:16:22.662Z,79.45
2019-04-14T18:19:12.460Z,58.05
2019-04-14T18:21:45.673Z,52.93
2019-04-14T18:24:19.107Z,50.33
2019-04-14T18:26:52.193Z,42.48
2019-04-14T18:29:45.070Z,49.98
2019-04-14T18:32:32.186Z,34.60
2019-04-14T18:35:23.247Z,44.10
2019-04-14T18:38:26.445Z,51.08
2019-04-14T18:41:19.832Z,66.82
2019-04-14T18:44:11.774Z,78.10
2019-04-14T18:46:53.840Z,108.05
2019-04-14T18:49:48.821Z,108.27
2019-04-14T18:52:39.926Z,98.22
2019-04-14T18:55:28.074Z,93.30
2019-04-14T18:58:17.776Z,92.92
2019-04-14T19:00:56.525Z,77.85
2019-04-14T19:03:30.064Z,72.55
2019-04-14T19:06:15.168Z,68.62
2019-04-14T19:08:46.334Z,79.25
2019-04-14T19:11:37.442Z,83.85
2019-04-14T19:14:11.534Z,74.60
2019-04-14T19:16:48.065Z,93.15
2019-04-14T19:20:01.808Z,81.95
2019-04-14T19:23:02.359Z,70.55
2019-04-14T19:26:06.822Z,50.25
2019-04-14T19:28:50.065Z,56.28
2019-04-14T19:31:26.651Z,79.90
2019-04-14T19:34:00.009Z,77.70
2019-04-14T19:36:37.243Z,42.93
2019-04-14T19:39:14.537Z,39.03
2019-04-14T19:41:47.986Z,41.25
2019-04-14T19:44:21.382Z,33.45
2019-04-14T19:46:54.683Z,36.55
2019-04-14T19:49:28.072Z,30.12
2019-04-14T19:52:04.266Z,29.82
2019-04-14T19:54:42.014Z,31.02
2019-04-14T19:57:15.235Z,21.77
2019-04-14T19:59:48.475Z,23.83
2019-04-14T20:02:25.035Z,21.17
2019-04-14T20:05:00.904Z,26.85
2019-04-14T20:07:35.775Z,29.37
2019-04-14T20:10:15.788Z,31.00
2019-04-14T20:12:45.214Z,20.45
2019-04-14T20:15:30.294Z,19.20
2019-04-14T20:18:11.437Z,20.40
2019-04-14T20:21:04.811Z,26.45
2019-04-14T20:23:57.336Z,25.52
2019-04-14T20:26:56.151Z,17.07
2019-04-14T20:29:39.358Z,19.73
2019-04-14T20:32:23.712Z,20.15
2019-04-14T20:34:57.463Z,14.20
2019-04-14T20:37:32.381Z,17.30
2019-04-14T20:40:06.942Z,16.50
2019-04-14T20:42:41.775Z,18.50
2019-04-14T20:45:17.155Z,19.40
2019-04-14T20:47:54.796Z,17.62
2019-04-14T20:50:31.120Z,17.15
2019-04-14T20:53:07.878Z,21.10
2019-04-14T20:55:47.182Z,17.25
2019-04-14T20:58:19.544Z,18.52
2019-04-14T21:01:00.312Z,22.93
2019-04-14T21:03:43.824Z,22.93
2019-04-14T21:06:30.266Z,31.45
2019-04-14T21:09:30.985Z,20.20
2019-04-14T21:12:19.235Z,22.60
2019-04-14T21:15:16.351Z,19.95
2019-04-14T21:18:06.473Z,23.57
2019-04-14T21:20:55.631Z,20.15
2019-04-14T21:23:52.881Z,19.05
2019-04-14T21:26:36.208Z,46.95
2019-04-14T21:29:30.444Z,67.95
2019-04-14T21:32:22.923Z,36.15
2019-04-14T21:35:09.151Z,23.65
2019-04-14T21:37:57.981Z,21.93
2019-04-14T21:40:50.959Z,21.52
2019-04-14T21:43:22.946Z,24.30
2019-04-14T21:45:59.920Z,43.58
2019-04-14T21:48:38.161Z,22.70
2019-04-14T21:51:11.770Z,26.17
2019-04-14T21:53:46.793Z,34.85
2019-04-14T21:56:33.701Z,22.90
2019-04-14T21:59:21.663Z,34.27
2019-04-14T22:02:15.235Z,29.63
2019-04-14T22:05:13.603Z,25.52
2019-04-14T22:08:15.454Z,21.60
2019-04-14T22:10:54.801Z,20.72
2019-04-14T22:13:33.783Z,18.20
2019-04-14T22:16:08.903Z,21.33
2019-04-14T22:18:47.005Z,21.90
2019-04-14T22:21:20.945Z,17.95
2019-04-14T22:24:01.826Z,18.85
2019-04-14T22:26:37.628Z,23.73
2019-04-14T22:29:10.867Z,22.65
2019-04-14T22:31:48.989Z,23.32
2019-04-14T22:34:22.261Z,20.82
2019-04-14T22:36:55.448Z,22.48
2019-04-14T22:39:40.217Z,20.82
2019-04-14T22:42:07.576Z,21.77
2019-04-14T22:44:43.063Z,24.95
2019-04-14T22:47:20.296Z,22.87
2019-04-14T22:49:55.307Z,18.55
2019-04-14T22:52:28.534Z,17.48
2019-04-14T22:55:05.748Z,19.05
2019-04-14T22:57:39.054Z,20.68
2019-04-14T23:00:22.421Z,22.15
2019-04-14T23:03:07.813Z,19.32
2019-04-14T23:06:07.396Z,25.27
2019-04-14T23:08:45.352Z,20.68
2019-04-14T23:11:37.544Z,18.73
2019-04-14T23:14:17.760Z,19.62
2019-04-14T23:17:21.514Z,18.55
2019-04-14T23:20:23.146Z,20.62
2019-04-14T23:23:18.267Z,16.48
2019-04-14T23:26:02.540Z,156.32
2019-04-14T23:28:32.485Z,131.85
2019-04-14T23:31:05.849Z,74.53
2019-04-14T23:33:41.457Z,31.33
2019-04-14T23:36:24.676Z,25.62
2019-04-14T23:38:57.896Z,44.05
2019-04-14T23:41:31.141Z,36.50
2019-04-14T23:44:05.835Z,40.15
2019-04-14T23:46:39.000Z,42.85
2019-04-14T23:49:12.663Z,81.02
2019-04-14T23:51:45.910Z,42.93
2019-04-14T23:54:20.429Z,40.35
2019-04-14T23:57:04.695Z,53.98
2019-04-14T23:59:28.633Z,42.00
